createdAt,value
2023-01-23T00:02:51.561Z,100832.63
2023-01-23T00:07:53.776Z,100812.75
2023-01-23T00:12:58.025Z,100777.41
2023-01-23T00:18:00.218Z,100755.28
2023-01-23T00:23:02.354Z,100776.06
2023-01-23T00:28:04.875Z,100768.47
2023-01-23T00:33:07.098Z,100816.06
2023-01-23T00:38:09.423Z,100776.59
2023-01-23T00:43:11.778Z,100761.31
2023-01-23T00:48:13.996Z,100714.97
2023-01-23T00:53:16.563Z,100839.94
2023-01-23T00:58:18.961Z,100801.50
2023-01-23T01:03:21.278Z,100827.13
2023-01-23T01:08:23.609Z,100849.22
2023-01-23T01:13:26.459Z,100814.97
2023-01-23T01:18:29.318Z,100869.94
2023-01-23T01:23:31.558Z,100859.25
2023-01-23T01:28:35.573Z,100835.66
2023-01-23T01:33:39.295Z,100874.00
2023-01-23T01:38:41.901Z,100876.34
2023-01-23T01:43:44.939Z,100775.94
2023-01-23T01:49:07.130Z,100890.28
2023-01-23T01:54:11.786Z,100902.53
2023-01-23T01:59:14.666Z,100898.31
2023-01-23T02:04:16.834Z,100885.28
2023-01-23T02:09:26.274Z,100856.38
2023-01-23T02:14:28.585Z,100881.47
2023-01-23T02:19:55.793Z,100905.66
2023-01-23T02:25:17.483Z,100875.22
2023-01-23T02:30:21.927Z,100903.16
2023-01-23T02:35:29.634Z,100901.88
2023-01-23T02:40:39.979Z,100820.47
2023-01-23T02:45:42.571Z,100882.88
2023-01-23T02:50:46.772Z,100914.06
2023-01-23T02:55:49.226Z,100852.84
2023-01-23T03:00:51.647Z,100873.28
2023-01-23T03:05:55.934Z,100865.91
2023-01-23T03:10:58.207Z,100876.09
2023-01-23T03:16:00.498Z,100864.56
2023-01-23T03:21:06.936Z,100901.94
2023-01-23T03:26:09.087Z,100883.63
2023-01-23T03:31:13.154Z,100865.13
2023-01-23T03:36:15.408Z,100914.91
2023-01-23T03:41:26.622Z,100893.28
2023-01-23T03:46:28.837Z,100912.44
2023-01-23T03:51:31.068Z,100891.88
2023-01-23T03:56:33.429Z,100898.72
2023-01-23T04:01:35.827Z,100938.03
2023-01-23T04:06:38.000Z,100939.91
2023-01-23T04:11:40.325Z,100923.38
2023-01-23T04:16:42.483Z,100913.09
2023-01-23T04:21:44.646Z,100880.84
2023-01-23T04:26:46.830Z,100948.16
2023-01-23T04:31:49.116Z,100934.56
2023-01-23T04:36:51.403Z,100881.44
2023-01-23T04:41:53.476Z,100902.09
2023-01-23T04:46:55.654Z,100941.13
2023-01-23T04:51:57.937Z,100921.94
2023-01-23T04:57:00.211Z,100883.50
2023-01-23T05:02:02.794Z,100981.03
2023-01-23T05:07:05.063Z,100951.94
2023-01-23T05:12:07.851Z,100892.66
2023-01-23T05:17:10.180Z,100927.94
2023-01-23T05:22:12.391Z,100856.41
2023-01-23T05:27:14.999Z,100844.16
2023-01-23T05:32:17.277Z,100918.28
2023-01-23T05:37:20.759Z,100915.31
2023-01-23T05:42:23.129Z,100986.44
2023-01-23T05:47:25.421Z,100932.56
2023-01-23T05:52:28.257Z,100955.66
2023-01-23T05:57:30.372Z,100996.84
2023-01-23T06:02:32.628Z,100997.56
2023-01-23T06:07:34.824Z,100962.06
2023-01-23T06:12:37.011Z,100948.72
2023-01-23T06:17:39.179Z,101036.09
2023-01-23T06:22:41.417Z,100966.84
2023-01-23T06:27:43.709Z,100953.28
2023-01-23T06:32:45.869Z,100984.22
2023-01-23T06:37:48.374Z,100983.94
2023-01-23T06:42:51.491Z,101011.69
2023-01-23T06:47:53.922Z,101007.63
2023-01-23T06:52:56.113Z,101028.97
2023-01-23T06:57:58.281Z,101056.59
2023-01-23T07:03:03.986Z,101061.78
2023-01-23T07:08:07.375Z,101094.19
2023-01-23T07:13:11.343Z,101095.66
2023-01-23T07:18:13.671Z,101094.56
2023-01-23T07:23:16.022Z,101073.88
2023-01-23T07:28:18.242Z,101104.22
2023-01-23T07:33:20.461Z,101055.03
2023-01-23T07:38:26.256Z,101052.50
2023-01-23T07:43:28.440Z,101076.69
2023-01-23T07:48:30.807Z,101037.84
2023-01-23T07:53:33.540Z,100992.75
2023-01-23T07:58:35.749Z,101067.25
2023-01-23T08:03:38.015Z,101047.63
2023-01-23T08:08:40.655Z,101091.94
2023-01-23T08:13:42.946Z,101041.69
2023-01-23T08:18:45.288Z,101143.78
2023-01-23T08:23:47.613Z,101151.75
2023-01-23T08:28:49.881Z,101064.25
2023-01-23T08:33:52.070Z,101064.72
2023-01-23T08:38:54.277Z,101030.13
2023-01-23T08:43:58.630Z,101118.25
2023-01-23T08:49:00.774Z,101125.41
2023-01-23T08:54:03.312Z,101137.84
2023-01-23T08:59:05.631Z,101058.69
2023-01-23T09:04:07.933Z,101099.88
2023-01-23T09:09:10.127Z,101145.47
2023-01-23T09:14:12.363Z,101024.31
2023-01-23T09:19:17.308Z,101086.44
2023-01-23T09:24:25.457Z,100989.03
2023-01-23T09:29:27.669Z,101032.81
2023-01-23T09:34:30.471Z,100979.22
2023-01-23T09:39:32.662Z,101058.66
2023-01-23T09:44:37.931Z,101101.66
2023-01-23T09:49:42.525Z,101094.66
2023-01-23T09:55:02.982Z,101042.19
2023-01-23T10:00:34.763Z,101093.00
2023-01-23T10:05:44.828Z,101006.91
2023-01-23T10:10:54.397Z,100956.28
2023-01-23T10:16:49.979Z,101089.22
2023-01-23T10:22:39.251Z,101084.50
2023-01-23T10:28:49.082Z,100962.38
2023-01-23T10:34:19.253Z,101047.97
2023-01-23T10:39:39.055Z,101020.41
2023-01-23T10:44:41.334Z,101054.22
2023-01-23T10:49:46.795Z,101048.59
2023-01-23T10:54:49.004Z,101058.56
2023-01-23T11:00:08.188Z,101063.63
2023-01-23T11:05:52.954Z,101077.44
2023-01-23T11:11:17.082Z,101039.72
2023-01-23T11:16:22.770Z,100994.97
2023-01-23T11:21:30.636Z,100902.25
2023-01-23T11:26:34.565Z,101079.88
2023-01-23T11:31:37.580Z,101079.22
2023-01-23T11:37:16.042Z,101042.63
2023-01-23T11:42:20.414Z,101069.66
2023-01-23T11:47:48.263Z,101064.13
2023-01-23T11:53:06.694Z,101065.44
2023-01-23T11:58:18.157Z,101064.00
2023-01-23T12:03:40.036Z,101060.25
2023-01-23T12:09:17.058Z,100987.41
2023-01-23T12:14:46.587Z,101058.13
2023-01-23T12:20:01.085Z,101056.06
2023-01-23T12:25:22.490Z,101055.44
2023-01-23T12:30:47.868Z,101050.66
2023-01-23T12:36:18.233Z,101043.00
2023-01-23T12:41:28.175Z,101025.06
2023-01-23T12:47:07.224Z,101053.19
2023-01-23T12:52:21.827Z,101062.13
2023-01-23T12:58:07.970Z,101037.56
2023-01-23T13:03:47.008Z,101062.13
2023-01-23T13:09:19.170Z,101054.63
2023-01-23T13:14:29.101Z,101067.34
2023-01-23T13:20:00.916Z,101055.88
2023-01-23T13:25:13.244Z,101063.41
2023-01-23T13:30:24.580Z,101064.00
2023-01-23T13:35:45.236Z,101062.94
2023-01-23T13:41:10.739Z,101071.72
2023-01-23T13:46:38.778Z,101038.75
2023-01-23T14:24:27.018Z,101080.22
2023-01-23T14:29:29.315Z,101059.00
2023-01-23T14:34:40.397Z,101086.28
2023-01-23T14:39:53.126Z,101076.69
2023-01-23T14:44:59.426Z,101059.81
2023-01-23T14:50:03.286Z,101073.69
2023-01-23T14:55:29.260Z,101073.69
2023-01-23T15:00:34.524Z,101072.47
2023-01-23T15:05:39.854Z,101014.03
2023-01-23T15:10:46.932Z,101096.78
2023-01-23T15:16:04.872Z,101102.84
2023-01-23T15:21:09.058Z,101056.31
2023-01-23T15:26:13.074Z,101088.50
2023-01-23T15:31:41.051Z,101101.03
2023-01-23T15:36:50.426Z,101102.91
2023-01-23T15:41:56.395Z,101031.88
2023-01-23T15:47:03.661Z,101120.75
2023-01-23T15:52:25.008Z,101121.59
2023-01-23T15:57:27.867Z,101084.81
2023-01-23T16:02:32.974Z,101116.81
2023-01-23T16:07:41.173Z,101117.47
2023-01-23T16:12:44.398Z,101030.59
2023-01-23T16:17:46.795Z,101041.25
2023-01-23T16:23:11.772Z,101081.22
2023-01-23T16:28:19.801Z,101132.25
2023-01-23T16:33:22.648Z,101083.25
2023-01-23T16:38:29.929Z,101101.50
2023-01-23T16:43:32.309Z,101095.88
2023-01-23T16:48:34.449Z,101097.06
2023-01-23T16:53:40.938Z,101128.06
2023-01-23T16:58:43.172Z,101128.28
2023-01-23T17:03:45.653Z,101123.16
2023-01-23T17:08:51.264Z,101137.75
2023-01-23T17:14:02.058Z,101133.84
2023-01-23T17:19:33.066Z,101143.69
2023-01-23T17:24:35.290Z,101119.66
2023-01-23T17:29:37.619Z,101165.72
2023-01-23T17:34:48.870Z,101150.69
2023-01-23T17:39:52.087Z,101159.81
2023-01-23T17:44:54.246Z,101133.81
2023-01-23T17:49:57.093Z,101156.38
2023-01-23T17:54:59.252Z,101160.09
2023-01-23T18:00:01.600Z,101144.78
2023-01-23T18:05:05.498Z,101167.56
2023-01-23T18:10:12.101Z,101174.44
2023-01-23T18:15:16.893Z,101170.06
2023-01-23T18:20:21.540Z,101127.72
2023-01-23T18:25:26.491Z,101158.00
2023-01-23T18:30:51.385Z,101174.25
2023-01-23T18:36:19.175Z,101195.69
2023-01-23T18:41:25.522Z,101197.06
2023-01-23T18:46:28.443Z,101183.50
2023-01-23T18:51:46.943Z,101191.66
2023-01-23T18:57:27.379Z,101190.34
2023-01-23T19:02:45.399Z,101173.97
2023-01-23T19:07:49.207Z,101159.72
2023-01-23T19:13:16.591Z,101195.44
2023-01-23T19:18:40.366Z,101204.75
2023-01-23T19:23:45.778Z,101212.53
2023-01-23T19:28:48.308Z,101179.72
2023-01-23T19:33:50.499Z,101220.25
2023-01-23T19:38:53.527Z,101222.38
2023-01-23T19:43:57.216Z,101194.75
2023-01-23T19:49:01.629Z,101229.69
2023-01-23T19:54:09.585Z,101236.69
2023-01-23T19:59:11.841Z,101222.94
2023-01-23T20:04:22.309Z,101239.88
2023-01-23T20:09:24.476Z,101215.53
2023-01-23T20:14:27.631Z,101238.88
2023-01-23T20:19:29.728Z,101237.28
2023-01-23T20:24:31.874Z,101235.25
2023-01-23T20:29:34.093Z,101213.78
2023-01-23T20:34:36.265Z,101167.22
2023-01-23T20:39:38.468Z,101210.03
2023-01-23T20:44:42.014Z,101237.03
2023-01-23T20:49:44.227Z,101252.16
2023-01-23T20:54:47.334Z,101200.91
2023-01-23T20:59:49.566Z,101241.88
2023-01-23T21:04:56.279Z,101225.22
2023-01-23T21:09:58.384Z,101216.63
2023-01-23T21:15:01.278Z,101236.19
2023-01-23T21:20:03.664Z,101259.66
2023-01-23T21:25:06.471Z,101222.28
2023-01-23T21:30:09.294Z,101260.34
2023-01-23T21:35:12.177Z,101276.34
2023-01-23T21:40:14.562Z,101285.81
2023-01-23T21:45:16.771Z,101239.41
2023-01-23T21:50:18.968Z,101232.88
2023-01-23T21:55:21.412Z,101273.19
2023-01-23T22:00:41.816Z,101262.94
2023-01-23T22:05:44.215Z,101251.25
2023-01-23T22:10:46.341Z,101265.19
2023-01-23T22:15:48.532Z,101281.56
2023-01-23T22:21:03.988Z,101289.28
2023-01-23T22:26:09.177Z,101295.72
2023-01-23T22:31:16.239Z,101295.84
2023-01-23T22:36:20.090Z,101289.81
2023-01-23T22:41:23.289Z,101288.81
2023-01-23T22:46:25.489Z,101275.41
2023-01-23T22:51:28.542Z,101288.41
2023-01-23T22:56:32.481Z,101279.13
2023-01-23T23:01:35.072Z,101280.63
2023-01-23T23:06:37.168Z,101282.94
2023-01-23T23:11:40.227Z,101279.09
2023-01-23T23:16:42.324Z,101258.16
2023-01-23T23:21:44.523Z,101293.38
2023-01-23T23:26:46.779Z,101297.91
2023-01-23T23:31:51.936Z,101284.88
2023-01-23T23:36:54.106Z,101307.88
2023-01-23T23:41:56.287Z,101308.06
2023-01-23T23:46:58.385Z,101295.16
2023-01-23T23:52:00.655Z,101286.88
2023-01-23T23:57:02.715Z,101306.28
